sensor_id;sensor_type;location;lat;lon;timestamp;temperature;humidity
5358;DHT22;2702;51.014;7.170;2023-02-01T00:01:57;5.40;99.90
5358;DHT22;2702;51.014;7.170;2023-02-01T00:04:23;5.40;99.90
5358;DHT22;2702;51.014;7.170;2023-02-01T00:06:49;5.30;99.90
5358;DHT22;2702;51.014;7.170;2023-02-01T00:09:15;5.30;99.90
5358;DHT22;2702;51.014;7.170;2023-02-01T00:11:40;5.40;99.90
5358;DHT22;2702;51.014;7.170;2023-02-01T00:14:06;5.40;99.90
5358;DHT22;2702;51.014;7.170;2023-02-01T00:16:33;5.30;99.90
5358;DHT22;2702;51.014;7.170;2023-02-01T00:19:02;5.30;99.90
5358;DHT22;2702;51.014;7.170;2023-02-01T00:21:29;5.40;99.90
5358;DHT22;2702;51.014;7.170;2023-02-01T00:23:55;5.30;99.90
5358;DHT22;2702;51.014;7.170;2023-02-01T00:26:30;5.30;99.90
5358;DHT22;2702;51.014;7.170;2023-02-01T00:28:56;5.30;99.90
5358;DHT22;2702;51.014;7.170;2023-02-01T00:31:22;5.30;99.90
5358;DHT22;2702;51.014;7.170;2023-02-01T00:33:48;5.30;99.90
5358;DHT22;2702;51.014;7.170;2023-02-01T00:36:14;5.40;99.90
5358;DHT22;2702;51.014;7.170;2023-02-01T00:38:40;5.40;99.90
5358;DHT22;2702;51.014;7.170;2023-02-01T00:41:11;5.40;99.90
5358;DHT22;2702;51.014;7.170;2023-02-01T00:43:37;5.40;99.90
5358;DHT22;2702;51.014;7.170;2023-02-01T00:46:04;5.40;99.90
5358;DHT22;2702;51.014;7.170;2023-02-01T00:48:29;5.40;99.90
5358;DHT22;2702;51.014;7.170;2023-02-01T00:51:09;5.40;99.90
5358;DHT22;2702;51.014;7.170;2023-02-01T00:53:36;5.40;99.90
5358;DHT22;2702;51.014;7.170;2023-02-01T00:56:03;5.40;99.90
5358;DHT22;2702;51.014;7.170;2023-02-01T00:58:29;5.40;99.90
5358;DHT22;2702;51.014;7.170;2023-02-01T01:01:08;5.30;99.90
5358;DHT22;2702;51.014;7.170;2023-02-01T01:03:42;5.30;99.90
5358;DHT22;2702;51.014;7.170;2023-02-01T01:06:13;5.20;99.90
5358;DHT22;2702;51.014;7.170;2023-02-01T01:08:40;5.20;99.90
5358;DHT22;2702;51.014;7.170;2023-02-01T01:11:09;5.20;99.90
5358;DHT22;2702;51.014;7.170;2023-02-01T01:13:36;5.20;99.90
5358;DHT22;2702;51.014;7.170;2023-02-01T01:16:03;5.20;99.90
5358;DHT22;2702;51.014;7.170;2023-02-01T01:18:30;5.10;99.90
5358;DHT22;2702;51.014;7.170;2023-02-01T01:20:56;5.10;99.90
5358;DHT22;2702;51.014;7.170;2023-02-01T01:23:22;5.00;99.90
5358;DHT22;2702;51.014;7.170;2023-02-01T01:25:48;5.00;99.90
5358;DHT22;2702;51.014;7.170;2023-02-01T01:28:14;5.00;99.90
5358;DHT22;2702;51.014;7.170;2023-02-01T01:30:40;5.00;99.90
5358;DHT22;2702;51.014;7.170;2023-02-01T01:33:06;5.00;99.90
5358;DHT22;2702;51.014;7.170;2023-02-01T01:35:33;5.00;99.90
5358;DHT22;2702;51.014;7.170;2023-02-01T01:38:00;5.00;99.90
5358;DHT22;2702;51.014;7.170;2023-02-01T01:40:27;5.00;99.90
5358;DHT22;2702;51.014;7.170;2023-02-01T01:42:53;5.00;99.90
5358;DHT22;2702;51.014;7.170;2023-02-01T01:45:34;5.00;99.90
5358;DHT22;2702;51.014;7.170;2023-02-01T01:48:06;5.00;99.90
5358;DHT22;2702;51.014;7.170;2023-02-01T01:50:48;5.00;99.90
5358;DHT22;2702;51.014;7.170;2023-02-01T01:53:25;5.00;99.90
5358;DHT22;2702;51.014;7.170;2023-02-01T01:55:54;5.00;99.90
5358;DHT22;2702;51.014;7.170;2023-02-01T01:58:24;4.90;99.90
5358;DHT22;2702;51.014;7.170;2023-02-01T02:00:52;4.90;99.90
5358;DHT22;2702;51.014;7.170;2023-02-01T02:03:25;4.80;99.90
5358;DHT22;2702;51.014;7.170;2023-02-01T02:05:55;4.80;99.90
5358;DHT22;2702;51.014;7.170;2023-02-01T02:08:25;4.80;99.90
5358;DHT22;2702;51.014;7.170;2023-02-01T02:10:52;4.80;99.90
5358;DHT22;2702;51.014;7.170;2023-02-01T02:13:39;4.80;99.90
5358;DHT22;2702;51.014;7.170;2023-02-01T02:22:05;4.70;99.90
5358;DHT22;2702;51.014;7.170;2023-02-01T02:27:51;4.70;99.90
5358;DHT22;2702;51.014;7.170;2023-02-01T02:36:37;4.80;99.90
5358;DHT22;2702;51.014;7.170;2023-02-01T02:39:02;4.80;99.90
5358;DHT22;2702;51.014;7.170;2023-02-01T02:41:51;4.80;99.90
5358;DHT22;2702;51.014;7.170;2023-02-01T02:47:45;4.80;99.90
5358;DHT22;2702;51.014;7.170;2023-02-01T02:53:07;4.80;99.90
5358;DHT22;2702;51.014;7.170;2023-02-01T02:55:54;4.70;99.90
5358;DHT22;2702;51.014;7.170;2023-02-01T02:58:41;4.80;99.90
5358;DHT22;2702;51.014;7.170;2023-02-01T03:01:27;4.80;99.90
5358;DHT22;2702;51.014;7.170;2023-02-01T03:04:11;4.90;99.90
5358;DHT22;2702;51.014;7.170;2023-02-01T03:06:43;4.80;99.90
5358;DHT22;2702;51.014;7.170;2023-02-01T03:09:18;4.80;99.90
5358;DHT22;2702;51.014;7.170;2023-02-01T03:11:49;4.70;99.90
5358;DHT22;2702;51.014;7.170;2023-02-01T03:14:37;4.60;99.90
5358;DHT22;2702;51.014;7.170;2023-02-01T03:17:13;4.70;99.90
5358;DHT22;2702;51.014;7.170;2023-02-01T03:19:45;4.60;99.90
5358;DHT22;2702;51.014;7.170;2023-02-01T03:22:20;4.60;99.90
5358;DHT22;2702;51.014;7.170;2023-02-01T03:24:48;4.60;99.90
5358;DHT22;2702;51.014;7.170;2023-02-01T03:32:36;4.60;99.90
5358;DHT22;2702;51.014;7.170;2023-02-01T03:37:56;4.70;99.90
5358;DHT22;2702;51.014;7.170;2023-02-01T03:40:28;4.70;99.90
5358;DHT22;2702;51.014;7.170;2023-02-01T03:42:59;4.70;99.90
5358;DHT22;2702;51.014;7.170;2023-02-01T03:45:34;4.70;99.90
5358;DHT22;2702;51.014;7.170;2023-02-01T03:48:01;4.70;99.90
5358;DHT22;2702;51.014;7.170;2023-02-01T03:50:29;4.70;99.90
5358;DHT22;2702;51.014;7.170;2023-02-01T03:53:08;4.70;99.90
5358;DHT22;2702;51.014;7.170;2023-02-01T03:55:35;4.80;99.90
5358;DHT22;2702;51.014;7.170;2023-02-01T03:58:14;4.80;99.90
5358;DHT22;2702;51.014;7.170;2023-02-01T04:00:43;4.80;99.90
5358;DHT22;2702;51.014;7.170;2023-02-01T04:03:09;4.80;99.90
5358;DHT22;2702;51.014;7.170;2023-02-01T04:05:35;4.80;99.90
5358;DHT22;2702;51.014;7.170;2023-02-01T04:08:01;4.80;99.90
5358;DHT22;2702;51.014;7.170;2023-02-01T04:10:28;4.80;99.90
5358;DHT22;2702;51.014;7.170;2023-02-01T04:12:54;4.70;99.90
5358;DHT22;2702;51.014;7.170;2023-02-01T04:15:19;4.80;99.90
5358;DHT22;2702;51.014;7.170;2023-02-01T04:17:45;4.80;99.90
5358;DHT22;2702;51.014;7.170;2023-02-01T04:20:11;4.80;99.90
5358;DHT22;2702;51.014;7.170;2023-02-01T04:22:37;4.80;99.90
5358;DHT22;2702;51.014;7.170;2023-02-01T04:25:03;4.80;99.90
5358;DHT22;2702;51.014;7.170;2023-02-01T04:27:31;4.80;99.90
5358;DHT22;2702;51.014;7.170;2023-02-01T04:29:57;4.80;99.90
5358;DHT22;2702;51.014;7.170;2023-02-01T04:32:23;4.80;99.90
5358;DHT22;2702;51.014;7.170;2023-02-01T04:34:49;4.80;99.90
5358;DHT22;2702;51.014;7.170;2023-02-01T04:37:15;4.90;99.90
5358;DHT22;2702;51.014;7.170;2023-02-01T04:39:40;4.80;99.90
5358;DHT22;2702;51.014;7.170;2023-02-01T04:42:06;4.90;99.90
5358;DHT22;2702;51.014;7.170;2023-02-01T04:44:32;4.80;99.90
5358;DHT22;2702;51.014;7.170;2023-02-01T04:46:58;4.80;99.90
5358;DHT22;2702;51.014;7.170;2023-02-01T04:49:24;4.80;99.90
5358;DHT22;2702;51.014;7.170;2023-02-01T04:51:51;4.70;99.90
5358;DHT22;2702;51.014;7.170;2023-02-01T04:54:17;4.60;99.90
5358;DHT22;2702;51.014;7.170;2023-02-01T04:56:43;4.70;99.90
5358;DHT22;2702;51.014;7.170;2023-02-01T04:59:11;4.60;99.90
5358;DHT22;2702;51.014;7.170;2023-02-01T05:01:37;4.60;99.90
5358;DHT22;2702;51.014;7.170;2023-02-01T05:04:03;4.60;99.90
5358;DHT22;2702;51.014;7.170;2023-02-01T05:06:29;4.60;99.90
5358;DHT22;2702;51.014;7.170;2023-02-01T05:08:54;4.60;99.90
5358;DHT22;2702;51.014;7.170;2023-02-01T05:11:21;4.60;99.90
5358;DHT22;2702;51.014;7.170;2023-02-01T05:14:05;4.60;99.90
5358;DHT22;2702;51.014;7.170;2023-02-01T05:16:32;4.60;99.90
5358;DHT22;2702;51.014;7.170;2023-02-01T05:18:58;4.60;99.90
5358;DHT22;2702;51.014;7.170;2023-02-01T05:21:25;4.60;99.90
5358;DHT22;2702;51.014;7.170;2023-02-01T05:23:50;4.60;99.90
5358;DHT22;2702;51.014;7.170;2023-02-01T05:26:35;4.60;99.90
5358;DHT22;2702;51.014;7.170;2023-02-01T05:29:02;4.60;99.90
5358;DHT22;2702;51.014;7.170;2023-02-01T05:31:28;4.60;99.90
5358;DHT22;2702;51.014;7.170;2023-02-01T05:33:54;4.60;99.90
5358;DHT22;2702;51.014;7.170;2023-02-01T05:36:20;4.60;99.90
5358;DHT22;2702;51.014;7.170;2023-02-01T05:38:46;4.60;99.90
5358;DHT22;2702;51.014;7.170;2023-02-01T05:41:12;4.60;99.90
5358;DHT22;2702;51.014;7.170;2023-02-01T05:43:38;4.50;99.90
5358;DHT22;2702;51.014;7.170;2023-02-01T05:46:04;4.50;99.90
5358;DHT22;2702;51.014;7.170;2023-02-01T05:48:29;4.50;99.90
5358;DHT22;2702;51.014;7.170;2023-02-01T05:50:55;4.50;99.90
5358;DHT22;2702;51.014;7.170;2023-02-01T05:53:21;4.50;99.90
5358;DHT22;2702;51.014;7.170;2023-02-01T05:55:47;4.50;99.90
5358;DHT22;2702;51.014;7.170;2023-02-01T05:58:13;4.50;99.90
5358;DHT22;2702;51.014;7.170;2023-02-01T06:00:39;4.40;99.90
5358;DHT22;2702;51.014;7.170;2023-02-01T06:03:05;4.50;99.90
5358;DHT22;2702;51.014;7.170;2023-02-01T06:05:31;4.50;99.90
5358;DHT22;2702;51.014;7.170;2023-02-01T06:07:57;4.50;99.90
5358;DHT22;2702;51.014;7.170;2023-02-01T06:10:24;4.50;99.90
5358;DHT22;2702;51.014;7.170;2023-02-01T06:12:50;4.60;99.90
5358;DHT22;2702;51.014;7.170;2023-02-01T06:15:16;4.50;99.90
5358;DHT22;2702;51.014;7.170;2023-02-01T06:17:43;4.50;99.90
5358;DHT22;2702;51.014;7.170;2023-02-01T06:20:10;4.40;99.90
5358;DHT22;2702;51.014;7.170;2023-02-01T06:22:37;4.40;99.90
5358;DHT22;2702;51.014;7.170;2023-02-01T06:25:07;4.40;99.90
5358;DHT22;2702;51.014;7.170;2023-02-01T06:27:34;4.30;99.90
5358;DHT22;2702;51.014;7.170;2023-02-01T06:30:00;4.30;99.90
5358;DHT22;2702;51.014;7.170;2023-02-01T06:32:26;4.30;99.90
5358;DHT22;2702;51.014;7.170;2023-02-01T06:34:52;4.30;99.90
5358;DHT22;2702;51.014;7.170;2023-02-01T06:37:19;4.30;99.90
5358;DHT22;2702;51.014;7.170;2023-02-01T06:39:45;4.30;99.90
5358;DHT22;2702;51.014;7.170;2023-02-01T06:42:10;4.30;99.90
5358;DHT22;2702;51.014;7.170;2023-02-01T06:44:36;4.30;99.90
5358;DHT22;2702;51.014;7.170;2023-02-01T06:47:04;4.30;99.90
5358;DHT22;2702;51.014;7.170;2023-02-01T06:49:30;4.30;99.90
5358;DHT22;2702;51.014;7.170;2023-02-01T06:51:56;4.30;99.90
5358;DHT22;2702;51.014;7.170;2023-02-01T06:54:22;4.30;99.90
5358;DHT22;2702;51.014;7.170;2023-02-01T06:56:48;4.30;99.90
5358;DHT22;2702;51.014;7.170;2023-02-01T06:59:14;4.30;99.90
5358;DHT22;2702;51.014;7.170;2023-02-01T07:01:39;4.20;99.90
5358;DHT22;2702;51.014;7.170;2023-02-01T07:04:05;4.20;99.90
5358;DHT22;2702;51.014;7.170;2023-02-01T07:06:31;4.20;99.90
5358;DHT22;2702;51.014;7.170;2023-02-01T07:08:57;4.20;99.90
5358;DHT22;2702;51.014;7.170;2023-02-01T07:11:23;4.20;99.90
5358;DHT22;2702;51.014;7.170;2023-02-01T07:13:49;4.20;99.90
5358;DHT22;2702;51.014;7.170;2023-02-01T07:16:18;4.20;99.90
5358;DHT22;2702;51.014;7.170;2023-02-01T07:18:44;4.20;99.90
5358;DHT22;2702;51.014;7.170;2023-02-01T07:21:11;4.20;99.90
5358;DHT22;2702;51.014;7.170;2023-02-01T07:23:37;4.20;99.90
5358;DHT22;2702;51.014;7.170;2023-02-01T07:26:05;4.30;99.90
5358;DHT22;2702;51.014;7.170;2023-02-01T07:28:34;4.30;99.90
5358;DHT22;2702;51.014;7.170;2023-02-01T07:31:09;4.30;99.90
5358;DHT22;2702;51.014;7.170;2023-02-01T07:33:36;4.30;99.90
5358;DHT22;2702;51.014;7.170;2023-02-01T07:36:04;4.30;99.90
5358;DHT22;2702;51.014;7.170;2023-02-01T07:38:30;4.40;99.90
5358;DHT22;2702;51.014;7.170;2023-02-01T07:41:00;4.40;99.90
5358;DHT22;2702;51.014;7.170;2023-02-01T07:43:27;4.40;99.90
5358;DHT22;2702;51.014;7.170;2023-02-01T07:45:54;4.40;99.90
5358;DHT22;2702;51.014;7.170;2023-02-01T07:48:22;4.40;99.90
5358;DHT22;2702;51.014;7.170;2023-02-01T07:50:56;4.40;99.90
5358;DHT22;2702;51.014;7.170;2023-02-01T07:53:21;4.40;99.90
5358;DHT22;2702;51.014;7.170;2023-02-01T07:55:47;4.40;99.90
5358;DHT22;2702;51.014;7.170;2023-02-01T07:58:13;4.40;99.90
5358;DHT22;2702;51.014;7.170;2023-02-01T08:00:39;4.40;99.90
5358;DHT22;2702;51.014;7.170;2023-02-01T08:03:24;4.40;99.90
5358;DHT22;2702;51.014;7.170;2023-02-01T08:05:54;4.40;99.90
5358;DHT22;2702;51.014;7.170;2023-02-01T08:08:21;4.40;99.90
5358;DHT22;2702;51.014;7.170;2023-02-01T08:10:47;4.40;99.90
5358;DHT22;2702;51.014;7.170;2023-02-01T08:13:13;4.40;99.90
5358;DHT22;2702;51.014;7.170;2023-02-01T08:15:39;4.40;99.90
5358;DHT22;2702;51.014;7.170;2023-02-01T08:18:05;4.40;99.90
5358;DHT22;2702;51.014;7.170;2023-02-01T08:20:31;4.30;99.90
5358;DHT22;2702;51.014;7.170;2023-02-01T08:22:57;4.40;99.90
5358;DHT22;2702;51.014;7.170;2023-02-01T08:25:23;4.40;99.90
5358;DHT22;2702;51.014;7.170;2023-02-01T08:27:50;4.30;99.90
5358;DHT22;2702;51.014;7.170;2023-02-01T08:30:16;4.40;99.90
5358;DHT22;2702;51.014;7.170;2023-02-01T08:32:42;4.40;99.90
5358;DHT22;2702;51.014;7.170;2023-02-01T08:35:08;4.30;99.90
5358;DHT22;2702;51.014;7.170;2023-02-01T08:37:34;4.30;99.90
5358;DHT22;2702;51.014;7.170;2023-02-01T08:40:01;4.40;99.90
5358;DHT22;2702;51.014;7.170;2023-02-01T08:42:27;4.30;99.90
5358;DHT22;2702;51.014;7.170;2023-02-01T08:45:11;4.30;99.90
5358;DHT22;2702;51.014;7.170;2023-02-01T08:47:38;4.30;99.90
5358;DHT22;2702;51.014;7.170;2023-02-01T08:50:04;4.30;99.90
5358;DHT22;2702;51.014;7.170;2023-02-01T08:52:30;4.30;99.90
5358;DHT22;2702;51.014;7.170;2023-02-01T08:54:56;4.30;99.90
5358;DHT22;2702;51.014;7.170;2023-02-01T08:57:21;4.30;99.90
5358;DHT22;2702;51.014;7.170;2023-02-01T08:59:47;4.40;99.90
5358;DHT22;2702;51.014;7.170;2023-02-01T09:02:15;4.30;99.90
5358;DHT22;2702;51.014;7.170;2023-02-01T09:04:41;4.40;99.90
5358;DHT22;2702;51.014;7.170;2023-02-01T09:07:08;4.40;99.90
5358;DHT22;2702;51.014;7.170;2023-02-01T09:09:35;4.50;99.90
5358;DHT22;2702;51.014;7.170;2023-02-01T09:12:02;4.40;99.90
5358;DHT22;2702;51.014;7.170;2023-02-01T09:14:28;4.50;99.90
5358;DHT22;2702;51.014;7.170;2023-02-01T09:16:54;4.50;99.90
5358;DHT22;2702;51.014;7.170;2023-02-01T09:19:20;4.50;99.90
5358;DHT22;2702;51.014;7.170;2023-02-01T09:21:46;4.50;99.90
5358;DHT22;2702;51.014;7.170;2023-02-01T09:24:12;4.50;99.90
5358;DHT22;2702;51.014;7.170;2023-02-01T09:26:38;4.60;99.90
5358;DHT22;2702;51.014;7.170;2023-02-01T09:29:05;4.50;99.90
5358;DHT22;2702;51.014;7.170;2023-02-01T09:31:36;4.50;99.90
5358;DHT22;2702;51.014;7.170;2023-02-01T09:34:02;4.60;99.90
5358;DHT22;2702;51.014;7.170;2023-02-01T09:36:28;4.60;99.90
5358;DHT22;2702;51.014;7.170;2023-02-01T09:38:54;4.60;99.90
5358;DHT22;2702;51.014;7.170;2023-02-01T09:41:48;4.50;99.90
5358;DHT22;2702;51.014;7.170;2023-02-01T09:46:58;4.50;99.90
5358;DHT22;2702;51.014;7.170;2023-02-01T09:49:34;4.60;99.90
5358;DHT22;2702;51.014;7.170;2023-02-01T09:52:06;4.60;99.90
5358;DHT22;2702;51.014;7.170;2023-02-01T09:54:47;4.60;99.90
5358;DHT22;2702;51.014;7.170;2023-02-01T09:57:21;4.60;99.90
5358;DHT22;2702;51.014;7.170;2023-02-01T09:59:59;4.70;99.90
5358;DHT22;2702;51.014;7.170;2023-02-01T10:02:28;4.80;99.90
5358;DHT22;2702;51.014;7.170;2023-02-01T10:04:58;4.70;99.90
5358;DHT22;2702;51.014;7.170;2023-02-01T10:07:37;4.70;99.90
5358;DHT22;2702;51.014;7.170;2023-02-01T10:10:29;4.70;99.90
5358;DHT22;2702;51.014;7.170;2023-02-01T10:15:59;4.70;99.90
5358;DHT22;2702;51.014;7.170;2023-02-01T10:29:45;4.80;99.90
5358;DHT22;2702;51.014;7.170;2023-02-01T10:32:24;4.80;99.90
5358;DHT22;2702;51.014;7.170;2023-02-01T10:34:59;4.90;99.90
5358;DHT22;2702;51.014;7.170;2023-02-01T10:37:31;5.00;99.90
5358;DHT22;2702;51.014;7.170;2023-02-01T10:40:14;5.00;99.90
5358;DHT22;2702;51.014;7.170;2023-02-01T10:42:42;5.00;99.90
5358;DHT22;2702;51.014;7.170;2023-02-01T10:45:17;5.20;99.90
5358;DHT22;2702;51.014;7.170;2023-02-01T10:47:45;5.30;99.90
5358;DHT22;2702;51.014;7.170;2023-02-01T10:50:25;5.30;99.90
5358;DHT22;2702;51.014;7.170;2023-02-01T10:53:03;5.40;99.90
5358;DHT22;2702;51.014;7.170;2023-02-01T10:55:50;5.50;99.90
5358;DHT22;2702;51.014;7.170;2023-02-01T10:58:19;5.70;99.90
5358;DHT22;2702;51.014;7.170;2023-02-01T11:01:08;5.60;99.90
5358;DHT22;2702;51.014;7.170;2023-02-01T11:08:58;5.70;99.90
5358;DHT22;2702;51.014;7.170;2023-02-01T11:11:24;5.70;99.90
5358;DHT22;2702;51.014;7.170;2023-02-01T11:13:58;5.50;99.90
5358;DHT22;2702;51.014;7.170;2023-02-01T11:16:33;5.50;99.90
5358;DHT22;2702;51.014;7.170;2023-02-01T11:18:59;5.60;99.90
5358;DHT22;2702;51.014;7.170;2023-02-01T11:21:26;5.50;99.90
5358;DHT22;2702;51.014;7.170;2023-02-01T11:23:54;5.50;99.90
5358;DHT22;2702;51.014;7.170;2023-02-01T11:26:27;5.50;99.90
5358;DHT22;2702;51.014;7.170;2023-02-01T11:28:58;5.30;99.90
5358;DHT22;2702;51.014;7.170;2023-02-01T11:31:26;5.40;99.90
5358;DHT22;2702;51.014;7.170;2023-02-01T11:33:59;5.50;99.90
5358;DHT22;2702;51.014;7.170;2023-02-01T11:36:30;5.50;99.90
5358;DHT22;2702;51.014;7.170;2023-02-01T11:39:28;5.60;99.90
5358;DHT22;2702;51.014;7.170;2023-02-01T11:42:05;5.50;99.90
5358;DHT22;2702;51.014;7.170;2023-02-01T11:44:37;5.50;99.90
5358;DHT22;2702;51.014;7.170;2023-02-01T11:49:55;5.50;99.90
5358;DHT22;2702;51.014;7.170;2023-02-01T11:52:55;5.60;99.90
5358;DHT22;2702;51.014;7.170;2023-02-01T12:01:03;5.70;99.90
5358;DHT22;2702;51.014;7.170;2023-02-01T12:09:21;5.60;99.90
5358;DHT22;2702;51.014;7.170;2023-02-01T12:12:08;5.70;99.90
5358;DHT22;2702;51.014;7.170;2023-02-01T12:15:08;5.60;99.90
5358;DHT22;2702;51.014;7.170;2023-02-01T12:35:18;5.60;99.90
5358;DHT22;2702;51.014;7.170;2023-02-01T12:42:41;5.70;99.90
5358;DHT22;2702;51.014;7.170;2023-02-01T12:45:42;5.60;99.90
5358;DHT22;2702;51.014;7.170;2023-02-01T12:50:57;5.80;99.90
5358;DHT22;2702;51.014;7.170;2023-02-01T12:56:03;5.70;99.90
5358;DHT22;2702;51.014;7.170;2023-02-01T12:58:42;5.80;99.90
5358;DHT22;2702;51.014;7.170;2023-02-01T13:01:36;5.70;99.90
5358;DHT22;2702;51.014;7.170;2023-02-01T13:06:53;5.70;99.90
5358;DHT22;2702;51.014;7.170;2023-02-01T13:09:41;5.80;99.90
5358;DHT22;2702;51.014;7.170;2023-02-01T13:12:14;5.80;99.90
5358;DHT22;2702;51.014;7.170;2023-02-01T13:15:02;5.70;99.90
5358;DHT22;2702;51.014;7.170;2023-02-01T13:17:32;5.80;99.90
5358;DHT22;2702;51.014;7.170;2023-02-01T13:20:15;5.70;99.90
5358;DHT22;2702;51.014;7.170;2023-02-01T13:23:03;5.70;99.90
5358;DHT22;2702;51.014;7.170;2023-02-01T13:28:39;5.80;99.90
5358;DHT22;2702;51.014;7.170;2023-02-01T13:37:29;5.90;99.90
5358;DHT22;2702;51.014;7.170;2023-02-01T13:42:56;5.90;99.90
5358;DHT22;2702;51.014;7.170;2023-02-01T13:45:26;5.80;99.90
5358;DHT22;2702;51.014;7.170;2023-02-01T13:47:56;5.80;99.90
5358;DHT22;2702;51.014;7.170;2023-02-01T13:52:57;5.80;99.90
5358;DHT22;2702;51.014;7.170;2023-02-01T13:55:31;5.80;99.90
5358;DHT22;2702;51.014;7.170;2023-02-01T14:00:37;5.90;99.90
5358;DHT22;2702;51.014;7.170;2023-02-01T14:03:13;5.90;99.90
5358;DHT22;2702;51.014;7.170;2023-02-01T14:08:13;6.00;99.90
5358;DHT22;2702;51.014;7.170;2023-02-01T14:10:53;5.90;99.90
5358;DHT22;2702;51.014;7.170;2023-02-01T14:13:38;5.90;99.90
5358;DHT22;2702;51.014;7.170;2023-02-01T14:23:46;6.10;99.90
5358;DHT22;2702;51.014;7.170;2023-02-01T14:26:18;6.10;99.90
5358;DHT22;2702;51.014;7.170;2023-02-01T14:47:56;6.20;99.90
5358;DHT22;2702;51.014;7.170;2023-02-01T14:50:41;6.20;99.90
5358;DHT22;2702;51.014;7.170;2023-02-01T14:55:44;6.30;99.90
5358;DHT22;2702;51.014;7.170;2023-02-01T14:58:34;6.30;99.90
5358;DHT22;2702;51.014;7.170;2023-02-01T15:01:46;6.30;99.90
5358;DHT22;2702;51.014;7.170;2023-02-01T15:04:09;6.30;99.90
5358;DHT22;2702;51.014;7.170;2023-02-01T15:06:43;6.30;99.90
5358;DHT22;2702;51.014;7.170;2023-02-01T15:09:24;6.30;99.90
5358;DHT22;2702;51.014;7.170;2023-02-01T15:14:20;6.30;99.90
5358;DHT22;2702;51.014;7.170;2023-02-01T15:16:45;6.30;99.90
5358;DHT22;2702;51.014;7.170;2023-02-01T15:19:23;6.20;99.90
5358;DHT22;2702;51.014;7.170;2023-02-01T15:21:51;6.30;99.90
5358;DHT22;2702;51.014;7.170;2023-02-01T15:24:26;6.30;99.90
5358;DHT22;2702;51.014;7.170;2023-02-01T15:26:53;6.30;99.90
5358;DHT22;2702;51.014;7.170;2023-02-01T15:29:22;6.20;99.90
5358;DHT22;2702;51.014;7.170;2023-02-01T15:31:52;6.20;99.90
5358;DHT22;2702;51.014;7.170;2023-02-01T15:34:19;6.10;99.90
5358;DHT22;2702;51.014;7.170;2023-02-01T15:36:46;6.10;99.90
5358;DHT22;2702;51.014;7.170;2023-02-01T15:41:38;6.00;99.90
5358;DHT22;2702;51.014;7.170;2023-02-01T15:47:12;6.00;99.90
5358;DHT22;2702;51.014;7.170;2023-02-01T15:49:40;6.10;99.90
5358;DHT22;2702;51.014;7.170;2023-02-01T15:54:51;6.10;99.90
5358;DHT22;2702;51.014;7.170;2023-02-01T15:57:26;6.10;99.90
5358;DHT22;2702;51.014;7.170;2023-02-01T15:59:58;6.10;99.90
5358;DHT22;2702;51.014;7.170;2023-02-01T16:04:52;6.20;99.90
5358;DHT22;2702;51.014;7.170;2023-02-01T16:07:28;6.20;99.90
5358;DHT22;2702;51.014;7.170;2023-02-01T16:10:00;6.20;99.90
5358;DHT22;2702;51.014;7.170;2023-02-01T16:12:46;6.30;99.90
5358;DHT22;2702;51.014;7.170;2023-02-01T16:15:12;6.30;99.90
5358;DHT22;2702;51.014;7.170;2023-02-01T16:17:38;6.30;99.90
5358;DHT22;2702;51.014;7.170;2023-02-01T16:20:04;6.30;99.90
5358;DHT22;2702;51.014;7.170;2023-02-01T16:22:30;6.30;99.90
5358;DHT22;2702;51.014;7.170;2023-02-01T16:24:56;6.30;99.90
5358;DHT22;2702;51.014;7.170;2023-02-01T16:27:22;6.30;99.90
5358;DHT22;2702;51.014;7.170;2023-02-01T16:29:49;6.30;99.90
5358;DHT22;2702;51.014;7.170;2023-02-01T16:32:20;6.40;99.90
5358;DHT22;2702;51.014;7.170;2023-02-01T16:34:47;6.40;99.90
5358;DHT22;2702;51.014;7.170;2023-02-01T16:37:16;6.30;99.90
5358;DHT22;2702;51.014;7.170;2023-02-01T16:39:42;6.30;99.90
5358;DHT22;2702;51.014;7.170;2023-02-01T16:42:12;6.40;99.90
5358;DHT22;2702;51.014;7.170;2023-02-01T16:44:39;6.40;99.90
5358;DHT22;2702;51.014;7.170;2023-02-01T16:47:16;6.40;99.90
5358;DHT22;2702;51.014;7.170;2023-02-01T16:49:43;6.40;99.90
5358;DHT22;2702;51.014;7.170;2023-02-01T16:52:23;6.40;99.90
5358;DHT22;2702;51.014;7.170;2023-02-01T16:54:49;6.40;99.90
5358;DHT22;2702;51.014;7.170;2023-02-01T16:57:17;6.40;99.90
5358;DHT22;2702;51.014;7.170;2023-02-01T16:59:43;6.30;99.90
5358;DHT22;2702;51.014;7.170;2023-02-01T17:02:12;6.40;99.90
5358;DHT22;2702;51.014;7.170;2023-02-01T17:04:39;6.40;99.90
5358;DHT22;2702;51.014;7.170;2023-02-01T17:07:05;6.40;99.90
5358;DHT22;2702;51.014;7.170;2023-02-01T17:09:36;6.30;99.90
5358;DHT22;2702;51.014;7.170;2023-02-01T17:12:03;6.30;99.90
5358;DHT22;2702;51.014;7.170;2023-02-01T17:14:32;6.30;99.90
5358;DHT22;2702;51.014;7.170;2023-02-01T17:17:00;6.20;99.90
5358;DHT22;2702;51.014;7.170;2023-02-01T17:19:26;6.20;99.90
5358;DHT22;2702;51.014;7.170;2023-02-01T17:21:54;6.20;99.90
5358;DHT22;2702;51.014;7.170;2023-02-01T17:24:23;6.20;99.90
5358;DHT22;2702;51.014;7.170;2023-02-01T17:26:50;6.20;99.90
5358;DHT22;2702;51.014;7.170;2023-02-01T17:29:17;6.20;99.90
5358;DHT22;2702;51.014;7.170;2023-02-01T17:31:46;6.20;99.90
5358;DHT22;2702;51.014;7.170;2023-02-01T17:34:13;6.10;99.90
5358;DHT22;2702;51.014;7.170;2023-02-01T17:36:45;6.10;99.90
5358;DHT22;2702;51.014;7.170;2023-02-01T17:39:12;6.20;99.90
5358;DHT22;2702;51.014;7.170;2023-02-01T17:42:01;6.20;99.90
5358;DHT22;2702;51.014;7.170;2023-02-01T17:44:27;6.20;99.90
5358;DHT22;2702;51.014;7.170;2023-02-01T17:46:53;6.20;99.90
5358;DHT22;2702;51.014;7.170;2023-02-01T17:49:22;6.20;99.90
5358;DHT22;2702;51.014;7.170;2023-02-01T17:51:48;6.20;99.90
5358;DHT22;2702;51.014;7.170;2023-02-01T17:54:17;6.20;99.90
5358;DHT22;2702;51.014;7.170;2023-02-01T17:56:45;6.20;99.90
5358;DHT22;2702;51.014;7.170;2023-02-01T17:59:13;6.20;99.90
5358;DHT22;2702;51.014;7.170;2023-02-01T18:01:40;6.20;99.90
5358;DHT22;2702;51.014;7.170;2023-02-01T18:04:12;6.20;99.90
5358;DHT22;2702;51.014;7.170;2023-02-01T18:06:40;6.20;99.90
5358;DHT22;2702;51.014;7.170;2023-02-01T18:09:06;6.20;99.90
5358;DHT22;2702;51.014;7.170;2023-02-01T18:11:33;6.20;99.90
5358;DHT22;2702;51.014;7.170;2023-02-01T18:13:59;6.20;99.90
5358;DHT22;2702;51.014;7.170;2023-02-01T18:16:28;6.20;99.90
5358;DHT22;2702;51.014;7.170;2023-02-01T18:18:54;6.10;99.90
5358;DHT22;2702;51.014;7.170;2023-02-01T18:21:37;6.20;99.90
5358;DHT22;2702;51.014;7.170;2023-02-01T18:24:04;6.10;99.90
5358;DHT22;2702;51.014;7.170;2023-02-01T18:26:30;6.10;99.90
5358;DHT22;2702;51.014;7.170;2023-02-01T18:28:56;6.10;99.90
5358;DHT22;2702;51.014;7.170;2023-02-01T18:31:28;6.10;99.90
5358;DHT22;2702;51.014;7.170;2023-02-01T18:33:56;6.10;99.90
5358;DHT22;2702;51.014;7.170;2023-02-01T18:36:22;6.10;99.90
5358;DHT22;2702;51.014;7.170;2023-02-01T18:38:49;6.10;99.90
5358;DHT22;2702;51.014;7.170;2023-02-01T18:41:17;6.10;99.90
5358;DHT22;2702;51.014;7.170;2023-02-01T18:43:46;6.10;99.90
5358;DHT22;2702;51.014;7.170;2023-02-01T18:46:12;6.10;99.90
5358;DHT22;2702;51.014;7.170;2023-02-01T18:48:39;6.10;99.90
5358;DHT22;2702;51.014;7.170;2023-02-01T18:51:07;6.10;99.90
5358;DHT22;2702;51.014;7.170;2023-02-01T18:53:34;6.10;99.90
5358;DHT22;2702;51.014;7.170;2023-02-01T18:56:00;6.10;99.90
5358;DHT22;2702;51.014;7.170;2023-02-01T18:58:27;6.10;99.90
5358;DHT22;2702;51.014;7.170;2023-02-01T19:00:54;6.10;99.90
5358;DHT22;2702;51.014;7.170;2023-02-01T19:03:21;6.10;99.90
5358;DHT22;2702;51.014;7.170;2023-02-01T19:05:55;6.10;99.90
5358;DHT22;2702;51.014;7.170;2023-02-01T19:08:21;6.10;99.90
5358;DHT22;2702;51.014;7.170;2023-02-01T19:10:49;6.10;99.90
5358;DHT22;2702;51.014;7.170;2023-02-01T19:13:15;6.20;99.90
5358;DHT22;2702;51.014;7.170;2023-02-01T19:15:42;6.20;99.90